Topeka, KS (66611)

02:45 PM CDT die 29o August, anno 2016 (GMT -0500)
South Central Topeka | | Change Station

Elev 946 ft 39.03 °N, 95.71 °W | Updated 4 seconds ago

Partly Cloudy
Partialiter Nubila
89.5 °F
Feels Like 99 °F
N
1.2
Ventus Variabilis Ventus from Magis Auster quam Eurus
Gusts 1.2 mph

Hodie
High -- | Low -- °F
--% Chance of Precip.
Yesterday
High -- | Low -- °F
Precip. -- in
Pressio 30.14 in
Visibilitas 10.0 milia passuum
Clouds Few 4600 ft
Index Caloris 99 °F
Frigus in quo Ros apparet 74 °F
Umor 61%
Rainfall 0.00 in
Snow Depth Not available.
6:49 AM 7:56 PM
Waning Crescent, 7% visible
METAR KFOE 291853Z 15004KT 10SM FEW046 31/21 A3017 RMK AO2 SLP204 T03110211
Pressio 30.14 in
Visibilitas 10.0 milia passuum
Clouds Few 4600 ft
Index Caloris 99 °F
Frigus in quo Ros apparet 74 °F
Umor 61%
Rainfall 0.00 in
Snow Depth Not available.
6:49 AM 7:56 PM
Waning Crescent, 7% visible
METAR KFOE 291853Z 15004KT 10SM FEW046 31/21 A3017 RMK AO2 SLP204 T03110211

10-Day Weather Forecast

Almanac

Astronomy

Aug. 29, 2016 Rise Set
Actual Time
Civil Twilight
Nautical Twilight
Astronomical Twilight
Moon
Length Of Visible Light
Length of Day
Tomorrow will be .
, % of the Moon is Illuminated

Today's Extremes

State Highs State Lows

Community

WunderPhotos

Upload Photos

1,935,642 photos uploaded!

WunderBlog® & News

Nearby

Air Quality

  Air Quality AQ Index Pollutant
Not available.

Snow Depth

Station Depth Elevation

Earthquake Activity

City Distance Mag. Time & Date
Minimum magnitude displayed is 2.5.

Coastal Water Temperatures

Locus Calor

Stations

Nearby Weather Stations

Station Location Temp Frigus Venti Frigus in quo Ros apparet Umor Ventus Precip. Elev Renovata Type
                   

Watches & Warnings

There are currently no watches in effect.